Dart — OUOV2 — position and weather

sailwx.info

Track history (hours):
 
Tides and Currents Weather Stations Pressure Air Temp Water Temp Dewpoint Dewpoint Depression Visibility Wind Speed Wind Dir Waves Ship Positions

Dart

Last reported at 2016-May-27 05:26 UTC. Time now 2016-May-27 18:10 UTC.
Position N 65°22' E 012°04'.

Length 66 m; draft 4.6 m.

Type: Tanker. MMSI: 219416000.

Date/timePositionNaut miles runAvg speedWind from/ knotsBaromVisibWave heightAir tempDewpointWater temp
2016-May-27 05:26N 65°22' E 012°04'8 9.6
2016-May-27 04:34N 65°14' E 011°55'10 9.7
2016-May-27 03:33N 65°05' E 011°47'9 9.4
2016-May-27 02:33N 64°58' E 011°33'10 9.8
2016-May-27 01:33N 64°51' E 011°15'10 9.8
2016-May-27 00:34N 64°44' E 010°59'71 8.5
2016-May-26 16:11N 63°44' E 009°32'5 8.6
2016-May-26 15:33N 63°39' E 009°29'8 8.0
2016-May-26 14:33N 63°33' E 009°17'146 7.3
2016-May-25 18:31N 61°60' E 005°10'7 7.3
2016-May-25 17:33N 61°53' E 005°12'82 7.5
2016-May-25 06:32N 60°30' E 004°58'9 9.1
2016-May-25 05:33N 60°23' E 005°09'9 8.6
2016-May-25 04:33N 60°15' E 005°10'9 9.1
2016-May-25 03:33N 60°07' E 005°18'12 8.8
2016-May-25 02:08N 59°56' E 005°30'6 9.5
2016-May-25 01:28N 59°50' E 005°33'7 7.8
2016-May-25 00:33N 59°43' E 005°28'9 8.2
2016-May-24 23:28N 59°36' E 005°17'10 7.9
2016-May-24 22:12N 59°26' E 005°14'5 8.4
2016-May-24 21:32N 59°21' E 005°19'7 7.0
2016-May-24 20:33N 59°14' E 005°21'9 8.5
2016-May-24 19:33N 59°07' E 005°29'8 8.2
2016-May-24 18:33N 58°59' E 005°33'4 3.7
2016-May-24 17:31N 58°55' E 005°36'0 0.0
2016-May-24 16:31N 58°55' E 005°36'0 0.0
2016-May-24 15:31N 58°55' E 005°36'0 0.0
2016-May-24 14:31N 58°55' E 005°36'0 0.0
2016-May-24 13:31N 58°55' E 005°36'0 0.0
2016-May-24 12:31N 58°55' E 005°36'0 0.0
2016-May-24 11:31N 58°55' E 005°36'0 0.2
2016-May-24 10:33N 58°56' E 005°36'0 0.0
2016-May-24 09:33N 58°56' E 005°36'0 0.0
2016-May-24 08:33N 58°56' E 005°36'0 0.0
2016-May-24 07:33N 58°56' E 005°36'0 0.0
2016-May-24 06:33N 58°56' E 005°36'0 0.0
2016-May-24 05:33N 58°56' E 005°36'0 0.0
2016-May-24 04:33N 58°56' E 005°36'0 0.1
2016-May-24 03:34N 58°56' E 005°36'7 6.7
2016-May-24 02:34N 59°02' E 005°32'7 7.4
2016-May-24 01:34N 59°08' E 005°24'8 7.7
2016-May-24 00:34N 59°16' E 005°20'10 8.5
2016-May-23 23:20N 59°25' E 005°14'6 7.1
2016-May-23 22:27N 59°32' E 005°12'8 7.7
2016-May-23 21:28N 59°38' E 005°19'7 7.7
2016-May-23 20:33N 59°44' E 005°28'7 6.8
2016-May-23 19:33N 59°50' E 005°33'123 7.1
2016-May-23 02:17N 61°52' E 005°14'5 6.9
2016-May-23 01:34N 61°56' E 005°07'8 8.1
2016-May-23 00:33N 62°04' E 005°07'9 4.3
2016-May-22 22:26N 62°10' E 005°21'4 0.1
2016-May-21 02:15N 62°12' E 005°29'12 7.1
2016-May-21 00:34N 62°10' E 005°04'9 9.1
2016-May-20 23:34N 62°01' E 005°09'8 8.3
2016-May-20 22:33N 61°53' E 005°12'120 5.0
2016-May-19 22:29N 59°53' E 005°32'9 9.5
2016-May-19 21:33N 59°44' E 005°30'10 9.8
2016-May-19 20:32N 59°37' E 005°17'22 5.5
2016-May-19 16:34N 59°15' E 005°21'9 9.1
2016-May-19 15:34N 59°07' E 005°29'9 9.1
2016-May-19 14:34N 59°02' E 005°43'8 7.5
2016-May-19 13:33N 58°54' E 005°46'1 1.0
2016-May-19 12:32N 58°53' E 005°45'0 0.0
2016-May-19 11:32N 58°53' E 005°45'0 0.0
2016-May-19 10:32N 58°53' E 005°45'0 0.0
2016-May-19 09:32N 58°53' E 005°45'0 0.0
2016-May-19 08:29N 58°53' E 005°45'0 0.0
2016-May-19 07:32N 58°53' E 005°45'0 0.0
2016-May-19 06:32N 58°53' E 005°45'0 0.0
2016-May-19 05:32N 58°53' E 005°45'0 0.0
2016-May-19 04:33N 58°53' E 005°45'0 0.0
2016-May-19 03:33N 58°53' E 005°45'8 8.1
2016-May-19 02:33N 59°01' E 005°47'8 8.2
2016-May-19 01:33N 59°04' E 005°33'9 9.0
2016-May-19 00:33N 59°11' E 005°20'10 9.0
2016-May-18 23:24N 59°21' E 005°19'8 9.6
2016-May-18 22:33N 59°29' E 005°13'9 9.4
2016-May-18 21:33N 59°38' E 005°18'9 8.4
2016-May-18 20:33N 59°46' E 005°21'  
Track history (hours):
 
Tides and Currents Weather Stations Pressure Air Temp Water Temp Dewpoint Dewpoint Depression Visibility Wind Speed Wind Dir Waves Ship Positions

Dart

Last reported at 2016-May-27 05:26 UTC. Time now 2016-May-27 18:10 UTC.
Position N 65°22' E 012°04'.

Length 66 m; draft 4.6 m.

Type: Tanker. MMSI: 219416000.

Date/timePositionNaut miles runAvg speedWind from/ knotsBaromVisibWave heightAir tempDewpointWater temp
2016-May-27 05:26N 65°22' E 012°04'8 9.6
2016-May-27 04:34N 65°14' E 011°55'10 9.7
2016-May-27 03:33N 65°05' E 011°47'9 9.4
2016-May-27 02:33N 64°58' E 011°33'10 9.8
2016-May-27 01:33N 64°51' E 011°15'10 9.8
2016-May-27 00:34N 64°44' E 010°59'71 8.5
2016-May-26 16:11N 63°44' E 009°32'5 8.6
2016-May-26 15:33N 63°39' E 009°29'8 8.0
2016-May-26 14:33N 63°33' E 009°17'146 7.3
2016-May-25 18:31N 61°60' E 005°10'7 7.3
2016-May-25 17:33N 61°53' E 005°12'82 7.5
2016-May-25 06:32N 60°30' E 004°58'9 9.1
2016-May-25 05:33N 60°23' E 005°09'9 8.6
2016-May-25 04:33N 60°15' E 005°10'9 9.1
2016-May-25 03:33N 60°07' E 005°18'12 8.8
2016-May-25 02:08N 59°56' E 005°30'6 9.5
2016-May-25 01:28N 59°50' E 005°33'7 7.8
2016-May-25 00:33N 59°43' E 005°28'9 8.2
2016-May-24 23:28N 59°36' E 005°17'10 7.9
2016-May-24 22:12N 59°26' E 005°14'5 8.4
2016-May-24 21:32N 59°21' E 005°19'7 7.0
2016-May-24 20:33N 59°14' E 005°21'9 8.5
2016-May-24 19:33N 59°07' E 005°29'8 8.2
2016-May-24 18:33N 58°59' E 005°33'4 3.7
2016-May-24 17:31N 58°55' E 005°36'0 0.0
2016-May-24 16:31N 58°55' E 005°36'0 0.0
2016-May-24 15:31N 58°55' E 005°36'0 0.0
2016-May-24 14:31N 58°55' E 005°36'0 0.0
2016-May-24 13:31N 58°55' E 005°36'0 0.0
2016-May-24 12:31N 58°55' E 005°36'0 0.0
2016-May-24 11:31N 58°55' E 005°36'0 0.2
2016-May-24 10:33N 58°56' E 005°36'0 0.0
2016-May-24 09:33N 58°56' E 005°36'0 0.0
2016-May-24 08:33N 58°56' E 005°36'0 0.0
2016-May-24 07:33N 58°56' E 005°36'0 0.0
2016-May-24 06:33N 58°56' E 005°36'0 0.0
2016-May-24 05:33N 58°56' E 005°36'0 0.0
2016-May-24 04:33N 58°56' E 005°36'0 0.1
2016-May-24 03:34N 58°56' E 005°36'7 6.7
2016-May-24 02:34N 59°02' E 005°32'7 7.4
2016-May-24 01:34N 59°08' E 005°24'8 7.7
2016-May-24 00:34N 59°16' E 005°20'10 8.5
2016-May-23 23:20N 59°25' E 005°14'6 7.1
2016-May-23 22:27N 59°32' E 005°12'8 7.7
2016-May-23 21:28N 59°38' E 005°19'7 7.7
2016-May-23 20:33N 59°44' E 005°28'7 6.8
2016-May-23 19:33N 59°50' E 005°33'123 7.1
2016-May-23 02:17N 61°52' E 005°14'5 6.9
2016-May-23 01:34N 61°56' E 005°07'8 8.1
2016-May-23 00:33N 62°04' E 005°07'9 4.3
2016-May-22 22:26N 62°10' E 005°21'4 0.1
2016-May-21 02:15N 62°12' E 005°29'12 7.1
2016-May-21 00:34N 62°10' E 005°04'9 9.1
2016-May-20 23:34N 62°01' E 005°09'8 8.3
2016-May-20 22:33N 61°53' E 005°12'120 5.0
2016-May-19 22:29N 59°53' E 005°32'9 9.5
2016-May-19 21:33N 59°44' E 005°30'10 9.8
2016-May-19 20:32N 59°37' E 005°17'22 5.5
2016-May-19 16:34N 59°15' E 005°21'9 9.1
2016-May-19 15:34N 59°07' E 005°29'9 9.1
2016-May-19 14:34N 59°02' E 005°43'8 7.5
2016-May-19 13:33N 58°54' E 005°46'1 1.0
2016-May-19 12:32N 58°53' E 005°45'0 0.0
2016-May-19 11:32N 58°53' E 005°45'0 0.0
2016-May-19 10:32N 58°53' E 005°45'0 0.0
2016-May-19 09:32N 58°53' E 005°45'0 0.0
2016-May-19 08:29N 58°53' E 005°45'0 0.0
2016-May-19 07:32N 58°53' E 005°45'0 0.0
2016-May-19 06:32N 58°53' E 005°45'0 0.0
2016-May-19 05:32N 58°53' E 005°45'0 0.0
2016-May-19 04:33N 58°53' E 005°45'0 0.0
2016-May-19 03:33N 58°53' E 005°45'8 8.1
2016-May-19 02:33N 59°01' E 005°47'8 8.2
2016-May-19 01:33N 59°04' E 005°33'9 9.0
2016-May-19 00:33N 59°11' E 005°20'10 9.0
2016-May-18 23:24N 59°21' E 005°19'8 9.6
2016-May-18 22:33N 59°29' E 005°13'9 9.4
2016-May-18 21:33N 59°38' E 005°18'9 8.4
2016-May-18 20:33N 59°46' E 005°21'  

Dump ship's entire track history